createdAt,value
2023-04-15T00:00:33.921Z,42.31
2023-04-15T00:03:02.270Z,42.65
2023-04-15T00:05:31.684Z,42.46
2023-04-15T00:07:58.881Z,42.24
2023-04-15T00:10:28.081Z,41.94
2023-04-15T00:12:54.353Z,41.79
2023-04-15T00:15:20.764Z,43.13
2023-04-15T00:17:47.138Z,42.02
2023-04-15T00:20:13.514Z,42.44
2023-04-15T00:22:39.829Z,42.52
2023-04-15T00:25:06.190Z,42.00
2023-04-15T00:27:32.545Z,42.62
2023-04-15T00:29:58.871Z,42.16
2023-04-15T00:32:25.254Z,42.57
2023-04-15T00:34:51.730Z,42.35
2023-04-15T00:37:18.033Z,42.58
2023-04-15T00:39:45.062Z,42.64
2023-04-15T00:42:11.911Z,42.47
2023-04-15T00:44:38.209Z,42.50
2023-04-15T00:47:04.868Z,42.50
2023-04-15T00:49:32.096Z,43.02
2023-04-15T00:51:58.396Z,42.35
2023-04-15T00:54:24.731Z,42.12
2023-04-15T00:56:51.145Z,42.50
2023-04-15T00:59:17.514Z,42.15
2023-04-15T01:01:43.877Z,42.41
2023-04-15T01:04:11.528Z,42.37
2023-04-15T01:06:37.930Z,43.43
2023-04-15T01:09:04.229Z,43.67
2023-04-15T01:11:30.632Z,43.40
2023-04-15T01:13:58.205Z,43.01
2023-04-15T01:16:24.581Z,43.57
2023-04-15T01:18:52.126Z,43.68
2023-04-15T01:21:19.303Z,43.33
2023-04-15T01:23:47.140Z,42.92
2023-04-15T01:26:13.410Z,43.50
2023-04-15T01:28:39.706Z,43.13
2023-04-15T01:31:09.732Z,43.31
2023-04-15T01:33:36.534Z,44.00
2023-04-15T01:36:03.503Z,43.45
2023-04-15T01:38:29.771Z,43.55
2023-04-15T01:40:56.050Z,43.58
2023-04-15T01:43:22.580Z,42.54
2023-04-15T01:45:48.889Z,42.88
2023-04-15T01:48:15.627Z,43.03
2023-04-15T01:50:42.581Z,44.38
2023-04-15T01:53:08.888Z,44.06
2023-04-15T01:55:35.180Z,43.55
2023-04-15T01:58:01.453Z,44.27
2023-04-15T02:00:28.402Z,44.35
2023-04-15T02:02:54.731Z,44.03
2023-04-15T02:05:21.062Z,43.47
2023-04-15T02:07:48.379Z,43.42
2023-04-15T02:10:16.311Z,43.50
2023-04-15T02:12:42.598Z,42.90
2023-04-15T02:15:09.158Z,42.92
2023-04-15T02:17:35.701Z,42.93
2023-04-15T02:20:02.119Z,42.42
2023-04-15T02:22:30.176Z,43.38
2023-04-15T02:24:56.464Z,43.22
2023-04-15T02:27:22.812Z,43.35
2023-04-15T02:29:51.175Z,43.66
2023-04-15T02:32:17.502Z,44.97
2023-04-15T02:34:43.808Z,45.55
2023-04-15T02:37:10.537Z,45.45
2023-04-15T02:39:36.855Z,45.24
2023-04-15T02:42:03.169Z,44.92
2023-04-15T02:44:29.447Z,44.53
2023-04-15T02:46:55.729Z,44.74
2023-04-15T02:49:22.890Z,44.31
2023-04-15T02:51:49.674Z,44.92
2023-04-15T02:54:16.947Z,45.72
2023-04-15T02:56:43.246Z,44.67
2023-04-15T02:59:09.532Z,44.84
2023-04-15T03:01:35.921Z,44.89
2023-04-15T03:04:02.436Z,45.32
2023-04-15T03:06:28.909Z,46.39
2023-04-15T03:08:55.212Z,45.39
2023-04-15T03:11:21.536Z,45.66
2023-04-15T03:13:47.812Z,45.99
2023-04-15T03:16:14.193Z,45.79
2023-04-15T03:18:40.673Z,46.72
2023-04-15T03:21:07.262Z,45.60
2023-04-15T03:23:33.574Z,45.00
2023-04-15T03:26:03.074Z,45.91
2023-04-15T03:28:30.013Z,46.85
2023-04-15T03:30:56.459Z,47.25
2023-04-15T03:33:22.760Z,47.59
2023-04-15T03:35:49.968Z,46.70
2023-04-15T03:38:16.336Z,47.03
2023-04-15T03:40:42.805Z,46.67
2023-04-15T03:43:09.095Z,47.00
2023-04-15T03:45:35.603Z,45.92
2023-04-15T03:50:31.111Z,44.84
2023-04-15T03:52:57.383Z,45.00
2023-04-15T03:55:23.666Z,44.86
2023-04-15T03:57:49.948Z,45.42
2023-04-15T04:00:16.271Z,45.60
2023-04-15T04:02:42.768Z,45.67
2023-04-15T04:05:09.247Z,46.81
2023-04-15T04:07:35.919Z,46.86
2023-04-15T04:10:03.666Z,47.04
2023-04-15T04:12:29.943Z,46.71
2023-04-15T04:14:56.307Z,47.17
2023-04-15T04:17:22.630Z,46.89
2023-04-15T04:19:48.962Z,47.62
2023-04-15T04:22:15.604Z,47.38
2023-04-15T04:24:41.875Z,47.64
2023-04-15T04:27:08.150Z,48.35
2023-04-15T04:29:34.435Z,48.38
2023-04-15T04:32:00.805Z,48.61
2023-04-15T04:34:27.116Z,48.22
2023-04-15T04:36:53.465Z,48.05
2023-04-15T04:39:19.742Z,48.01
2023-04-15T04:41:46.109Z,48.22
2023-04-15T04:44:12.381Z,48.36
2023-04-15T04:46:38.666Z,48.95
2023-04-15T04:49:05.127Z,49.55
2023-04-15T04:51:31.686Z,50.12
2023-04-15T04:53:57.979Z,50.68
2023-04-15T04:56:24.255Z,50.56
2023-04-15T04:58:51.246Z,49.39
2023-04-15T05:01:17.591Z,50.72
2023-04-15T05:03:44.225Z,50.39
2023-04-15T05:06:10.638Z,49.67
2023-04-15T05:08:39.131Z,48.97
2023-04-15T05:11:06.556Z,49.52
2023-04-15T05:13:32.958Z,50.04
2023-04-15T05:15:59.702Z,51.89
2023-04-15T05:18:26.064Z,51.93
2023-04-15T05:20:52.398Z,51.60
2023-04-15T05:23:18.846Z,52.13
2023-04-15T05:25:45.173Z,50.32
2023-04-15T05:28:11.549Z,50.27
2023-04-15T05:30:37.903Z,50.30
2023-04-15T05:33:04.226Z,50.56
2023-04-15T05:35:30.594Z,50.33
2023-04-15T05:37:56.916Z,50.23
2023-04-15T05:40:23.429Z,50.63
2023-04-15T05:42:49.772Z,50.71
2023-04-15T05:45:16.049Z,50.35
2023-04-15T05:47:42.447Z,49.61
2023-04-15T05:50:09.318Z,50.03
2023-04-15T05:52:35.862Z,50.15
2023-04-15T05:55:02.184Z,51.15
2023-04-15T05:57:28.491Z,50.79
2023-04-15T05:59:57.147Z,50.89
2023-04-15T06:02:23.485Z,51.59
2023-04-15T06:04:49.819Z,51.67
2023-04-15T06:07:16.174Z,50.93
2023-04-15T06:09:42.515Z,50.92
2023-04-15T06:12:12.127Z,51.65
2023-04-15T06:14:39.035Z,50.26
2023-04-15T06:17:05.320Z,50.02
2023-04-15T06:19:31.870Z,50.30
2023-04-15T06:21:58.281Z,50.45
2023-04-15T06:24:24.584Z,50.79
2023-04-15T06:26:51.160Z,50.67
2023-04-15T06:29:17.466Z,50.60
2023-04-15T06:31:43.929Z,50.26
2023-04-15T06:34:11.095Z,49.86
2023-04-15T06:36:37.425Z,50.32
2023-04-15T06:39:03.870Z,50.70
2023-04-15T06:41:30.346Z,51.73
2023-04-15T06:43:56.666Z,51.51
2023-04-15T06:46:23.033Z,49.57
2023-04-15T06:48:49.336Z,49.52
2023-04-15T06:51:15.628Z,49.24
2023-04-15T06:53:43.821Z,50.09
2023-04-15T06:56:10.459Z,49.75
2023-04-15T06:58:36.776Z,50.28
2023-04-15T07:01:03.871Z,51.95
2023-04-15T07:03:32.582Z,50.62
2023-04-15T07:05:59.625Z,49.56
2023-04-15T07:08:26.445Z,49.37
2023-04-15T07:10:54.036Z,50.50
2023-04-15T07:13:20.670Z,51.96
2023-04-15T07:15:46.973Z,52.75
2023-04-15T07:18:13.947Z,54.57
2023-04-15T07:20:40.220Z,54.28
2023-04-15T07:23:06.561Z,56.68
2023-04-15T07:25:32.850Z,57.56
2023-04-15T07:27:59.145Z,56.14
2023-04-15T07:30:25.936Z,56.59
2023-04-15T07:32:52.641Z,56.26
2023-04-15T07:35:21.254Z,56.74
2023-04-15T07:37:48.024Z,54.06
2023-04-15T07:40:16.037Z,54.27
2023-04-15T07:42:43.466Z,54.03
2023-04-15T07:45:09.926Z,53.58
2023-04-15T07:47:36.471Z,53.95
2023-04-15T07:50:02.794Z,53.48
2023-04-15T07:52:29.065Z,54.18
2023-04-15T07:54:55.592Z,53.07
2023-04-15T07:57:21.892Z,53.54
2023-04-15T07:59:48.166Z,53.37
2023-04-15T08:02:15.375Z,53.81
2023-04-15T08:04:42.083Z,54.46
2023-04-15T08:07:08.583Z,54.61
2023-04-15T08:09:35.553Z,55.11
2023-04-15T08:12:02.042Z,54.82
2023-04-15T08:14:28.843Z,53.86
2023-04-15T08:16:55.151Z,52.81
2023-04-15T08:19:21.522Z,54.14
2023-04-15T08:21:47.860Z,54.08
2023-04-15T08:24:14.435Z,55.79
2023-04-15T08:26:40.710Z,56.24
2023-04-15T08:29:06.994Z,55.62
2023-04-15T08:31:33.442Z,56.10
2023-04-15T08:34:00.261Z,57.81
2023-04-15T08:36:27.045Z,57.45
2023-04-15T08:38:53.444Z,57.33
2023-04-15T08:41:23.772Z,57.07
2023-04-15T08:43:54.586Z,58.50
2023-04-15T08:46:20.987Z,58.36
2023-04-15T08:48:47.666Z,59.53
2023-04-15T08:51:16.127Z,61.13
2023-04-15T08:53:47.222Z,60.80
2023-04-15T08:56:14.204Z,60.13
2023-04-15T08:58:40.515Z,59.24
2023-04-15T09:01:07.123Z,60.22
2023-04-15T09:03:33.569Z,61.13
2023-04-15T09:05:59.938Z,62.60
2023-04-15T09:08:26.601Z,62.85
2023-04-15T09:10:53.821Z,63.26
2023-04-15T09:13:20.116Z,63.10
2023-04-15T09:15:46.393Z,60.86
2023-04-15T09:18:13.659Z,61.55
2023-04-15T09:20:43.007Z,61.32
2023-04-15T09:23:13.481Z,62.00
2023-04-15T09:25:40.362Z,60.78
2023-04-15T09:28:06.635Z,58.81
2023-04-15T09:30:32.977Z,59.54
2023-04-15T09:33:00.068Z,60.16
2023-04-15T09:35:27.390Z,60.79
2023-04-15T09:37:53.733Z,59.91
2023-04-15T09:40:33.024Z,59.54
2023-04-15T09:42:59.507Z,58.17
2023-04-15T09:45:28.908Z,58.44
2023-04-15T09:47:57.744Z,57.50
2023-04-15T09:50:27.601Z,57.48
2023-04-15T09:52:53.877Z,57.45
2023-04-15T09:55:20.270Z,56.38
2023-04-15T09:57:47.308Z,55.62
2023-04-15T10:00:14.064Z,57.03
2023-04-15T10:02:40.932Z,56.04
2023-04-15T10:05:07.387Z,55.25
2023-04-15T10:07:33.928Z,55.54
2023-04-15T10:10:00.529Z,56.38
2023-04-15T10:12:26.830Z,57.03
2023-04-15T10:14:53.429Z,55.97
2023-04-15T10:17:21.333Z,56.26
2023-04-15T10:19:47.682Z,57.33
2023-04-15T10:22:14.494Z,55.49
2023-04-15T10:24:40.779Z,56.39
2023-04-15T10:27:07.409Z,57.65
2023-04-15T10:29:33.977Z,57.21
2023-04-15T10:32:00.454Z,55.89
2023-04-15T10:34:26.735Z,55.58
2023-04-15T10:36:57.287Z,54.89
2023-04-15T10:39:42.865Z,56.10
2023-04-15T10:42:13.041Z,55.54
2023-04-15T10:44:42.988Z,55.93
2023-04-15T10:47:13.072Z,55.45
2023-04-15T10:49:43.076Z,53.98
2023-04-15T10:52:09.368Z,54.42
2023-04-15T10:54:38.771Z,54.78
2023-04-15T10:57:05.866Z,54.60
2023-04-15T10:59:43.472Z,55.61
2023-04-15T11:08:13.330Z,55.08
2023-04-15T11:10:39.555Z,54.97
2023-04-15T11:13:13.282Z,55.22
2023-04-15T11:15:40.519Z,54.97
2023-04-15T11:18:18.308Z,54.86
2023-04-15T11:21:04.886Z,55.51
2023-04-15T11:23:38.255Z,54.98
2023-04-15T11:26:09.756Z,54.70
2023-04-15T11:28:37.468Z,55.62
2023-04-15T11:31:10.520Z,56.20
2023-04-15T11:33:36.818Z,57.34
2023-04-15T11:36:04.193Z,57.67
2023-04-15T11:38:31.413Z,56.82
2023-04-15T11:40:57.730Z,56.09
2023-04-15T11:43:24.289Z,55.38
2023-04-15T11:45:57.372Z,55.89
2023-04-15T11:48:24.831Z,55.35
2023-04-15T11:50:54.916Z,55.46
2023-04-15T11:53:21.672Z,55.83
2023-04-15T11:55:48.607Z,55.21
2023-04-15T11:58:22.313Z,54.78
2023-04-15T12:00:55.121Z,57.41
2023-04-15T12:03:25.079Z,58.23
2023-04-15T12:06:13.930Z,59.64
2023-04-15T12:08:55.376Z,59.22
2023-04-15T12:11:22.155Z,58.84
2023-04-15T12:13:49.143Z,59.51
2023-04-15T12:16:18.770Z,59.96
2023-04-15T12:18:56.098Z,59.32
2023-04-15T12:21:23.015Z,59.60
2023-04-15T12:23:50.254Z,59.77
2023-04-15T12:26:17.299Z,60.05
2023-04-15T12:28:43.654Z,60.55
2023-04-15T12:31:10.362Z,60.79
2023-04-15T12:33:36.811Z,61.02
2023-04-15T12:36:03.301Z,61.16
2023-04-15T12:38:29.894Z,60.95
2023-04-15T12:40:56.432Z,61.28
2023-04-15T12:43:22.721Z,59.42
2023-04-15T12:45:49.046Z,60.02
2023-04-15T12:48:15.436Z,60.81
2023-04-15T12:50:41.742Z,61.13
2023-04-15T12:53:09.261Z,58.92
2023-04-15T12:55:35.630Z,58.40
2023-04-15T12:58:02.005Z,58.59
2023-04-15T13:00:28.309Z,58.51
2023-04-15T13:02:54.662Z,58.95
2023-04-15T13:05:21.146Z,58.55
2023-04-15T13:07:47.427Z,58.13
2023-04-15T13:10:13.721Z,59.20
2023-04-15T13:12:41.314Z,59.36
2023-04-15T13:15:09.479Z,61.19
2023-04-15T13:17:36.056Z,60.93
2023-04-15T13:20:02.382Z,61.18
2023-04-15T13:22:28.691Z,61.36
2023-04-15T13:24:55.041Z,61.14
2023-04-15T13:27:21.559Z,61.04
2023-04-15T13:29:47.840Z,60.25
2023-04-15T13:32:14.253Z,60.43
2023-04-15T13:34:40.616Z,58.59
2023-04-15T13:37:07.816Z,59.97
2023-04-15T13:39:34.162Z,59.28
2023-04-15T13:42:00.765Z,58.99
2023-04-15T13:44:27.061Z,58.68
2023-04-15T13:46:53.343Z,58.78
2023-04-15T13:49:19.642Z,59.03
2023-04-15T13:51:45.981Z,58.50
2023-04-15T13:54:12.274Z,59.04
2023-04-15T13:56:38.606Z,58.69
2023-04-15T13:59:06.526Z,57.48
2023-04-15T14:01:32.883Z,57.66
2023-04-15T14:03:59.377Z,57.14
2023-04-15T14:06:27.177Z,56.99
2023-04-15T14:08:53.473Z,56.16
2023-04-15T14:11:19.843Z,55.51
2023-04-15T14:13:46.297Z,55.37
2023-04-15T14:16:12.666Z,55.65
2023-04-15T14:18:39.650Z,56.98
2023-04-15T14:21:06.371Z,57.21
2023-04-15T14:23:32.683Z,57.92
2023-04-15T14:25:58.958Z,57.67
2023-04-15T14:28:25.325Z,56.67
2023-04-15T14:30:51.785Z,55.47
2023-04-15T14:33:18.134Z,54.81
2023-04-15T14:35:44.748Z,54.05
2023-04-15T14:38:11.544Z,53.88
2023-04-15T14:40:38.008Z,54.08
2023-04-15T14:43:04.308Z,54.56
2023-04-15T14:45:30.595Z,53.71
2023-04-15T14:47:56.909Z,53.70
2023-04-15T14:50:23.271Z,54.32
2023-04-15T14:52:49.557Z,55.51
2023-04-15T14:55:15.839Z,55.51
2023-04-15T14:57:42.145Z,54.67
2023-04-15T15:00:09.738Z,54.56
2023-04-15T15:02:39.700Z,54.65
2023-04-15T15:05:06.867Z,53.86
2023-04-15T15:07:33.299Z,53.69
2023-04-15T15:09:59.703Z,54.66
2023-04-15T15:12:26.119Z,55.59
2023-04-15T15:14:52.400Z,54.78
2023-04-15T15:17:18.675Z,55.08
2023-04-15T15:19:44.954Z,55.42
2023-04-15T15:22:11.245Z,55.76
2023-04-15T15:24:37.554Z,56.12
2023-04-15T15:27:05.720Z,55.76
2023-04-15T15:29:32.018Z,55.32
2023-04-15T15:31:58.294Z,53.92
2023-04-15T15:34:24.572Z,53.99
2023-04-15T15:36:50.923Z,54.42
2023-04-15T15:39:17.237Z,55.65
2023-04-15T15:41:43.509Z,54.91
2023-04-15T15:44:09.797Z,55.01
2023-04-15T15:46:36.134Z,55.58
2023-04-15T15:49:03.452Z,55.21
2023-04-15T15:51:30.203Z,55.91
2023-04-15T15:53:56.469Z,55.97
2023-04-15T15:56:22.759Z,56.53
2023-04-15T15:58:49.064Z,56.71
2023-04-15T16:01:15.697Z,56.18
2023-04-15T16:03:42.163Z,55.52
2023-04-15T16:06:08.708Z,55.53
2023-04-15T16:08:35.091Z,54.49
2023-04-15T16:11:01.421Z,54.86
2023-04-15T16:13:27.772Z,54.11
2023-04-15T16:15:54.034Z,53.55
2023-04-15T16:18:20.679Z,53.37
2023-04-15T16:20:46.962Z,52.74
2023-04-15T16:23:14.028Z,51.46
2023-04-15T16:25:41.160Z,51.11
2023-04-15T16:28:18.535Z,50.23
2023-04-15T16:30:51.718Z,49.69
2023-04-15T16:33:18.050Z,49.03
2023-04-15T16:35:44.387Z,48.83
2023-04-15T16:38:10.672Z,49.72
2023-04-15T16:40:37.172Z,48.59
2023-04-15T16:43:03.567Z,48.82
2023-04-15T16:45:29.998Z,49.67
2023-04-15T16:47:56.885Z,48.87
2023-04-15T16:50:23.860Z,49.83
2023-04-15T16:52:50.150Z,50.74
2023-04-15T16:55:16.451Z,50.33
2023-04-15T16:58:02.619Z,50.42
2023-04-15T17:00:29.049Z,49.17
2023-04-15T17:02:55.605Z,49.53
2023-04-15T17:05:22.071Z,49.76
2023-04-15T17:07:48.367Z,48.86
2023-04-15T17:10:14.719Z,49.20
2023-04-15T17:12:40.988Z,52.62
2023-04-15T17:15:07.902Z,53.82
2023-04-15T17:17:34.201Z,53.76
2023-04-15T17:20:00.557Z,53.21
2023-04-15T17:22:27.354Z,52.66
2023-04-15T17:24:53.656Z,52.50
2023-04-15T17:27:20.739Z,52.07
2023-04-15T17:29:47.087Z,51.42
2023-04-15T17:32:13.446Z,50.93
2023-04-15T17:34:49.898Z,52.79
2023-04-15T17:37:17.562Z,52.50
2023-04-15T17:39:44.146Z,52.19
2023-04-15T17:42:11.008Z,52.40
2023-04-15T17:44:37.294Z,50.89
2023-04-15T17:47:03.575Z,50.68
2023-04-15T17:49:30.732Z,51.31
2023-04-15T17:51:57.193Z,51.76
2023-04-15T17:54:23.481Z,52.69
2023-04-15T17:56:49.783Z,52.55
2023-04-15T17:59:16.332Z,51.90
2023-04-15T18:01:42.698Z,51.00
2023-04-15T18:04:09.335Z,50.40
2023-04-15T18:06:35.972Z,51.10
2023-04-15T18:09:02.584Z,50.68
2023-04-15T18:11:28.958Z,50.65
2023-04-15T18:13:55.269Z,51.01
2023-04-15T18:16:21.724Z,51.38
2023-04-15T18:18:48.065Z,51.88
2023-04-15T18:21:14.359Z,51.67
2023-04-15T18:23:40.715Z,51.10
2023-04-15T18:26:06.996Z,51.36
2023-04-15T18:28:33.328Z,51.64
2023-04-15T18:30:59.675Z,51.33
2023-04-15T18:33:25.966Z,51.82
2023-04-15T18:35:52.279Z,51.92
2023-04-15T18:38:18.595Z,52.04
2023-04-15T18:40:44.883Z,51.25
2023-04-15T18:43:11.182Z,51.43
2023-04-15T18:45:37.507Z,50.73
2023-04-15T18:48:04.288Z,51.47
2023-04-15T18:50:30.803Z,51.57
2023-04-15T18:52:57.089Z,51.74
2023-04-15T18:55:23.396Z,51.58
2023-04-15T18:57:49.691Z,51.95
2023-04-15T19:00:17.019Z,52.56
2023-04-15T19:02:44.083Z,52.55
2023-04-15T19:05:10.673Z,52.56
2023-04-15T19:07:36.980Z,52.01
2023-04-15T19:10:04.162Z,52.64
2023-04-15T19:12:30.495Z,52.25
2023-04-15T19:14:56.812Z,52.95
2023-04-15T19:17:23.186Z,53.18
2023-04-15T19:19:49.497Z,52.51
2023-04-15T19:22:15.840Z,52.13
2023-04-15T19:24:42.262Z,51.94
2023-04-15T19:27:08.553Z,52.85
2023-04-15T19:29:34.901Z,53.87
2023-04-15T19:32:01.263Z,53.67
2023-04-15T19:34:27.604Z,53.42
2023-04-15T19:36:53.902Z,53.85
2023-04-15T19:39:20.318Z,53.95
2023-04-15T19:41:47.122Z,53.71
2023-04-15T19:44:13.587Z,54.34
2023-04-15T19:46:40.250Z,54.13
2023-04-15T19:49:06.768Z,54.15
2023-04-15T19:51:33.280Z,54.48
2023-04-15T19:53:59.581Z,54.50
2023-04-15T19:56:26.045Z,54.56
2023-04-15T19:58:55.206Z,54.50
2023-04-15T20:01:21.695Z,56.32
2023-04-15T20:03:48.239Z,56.18
2023-04-15T20:06:14.788Z,56.19
2023-04-15T20:08:41.152Z,56.15
2023-04-15T20:11:08.244Z,55.87
2023-04-15T20:13:34.515Z,56.16
2023-04-15T20:16:00.892Z,55.97
2023-04-15T20:18:27.208Z,57.33
2023-04-15T20:20:53.522Z,57.18
2023-04-15T20:23:19.820Z,57.17
2023-04-15T20:25:46.182Z,57.23
2023-04-15T20:28:12.524Z,56.66
2023-04-15T20:30:39.501Z,57.29
2023-04-15T20:33:07.594Z,56.78
2023-04-15T20:35:34.132Z,56.83
2023-04-15T20:38:00.714Z,56.32
2023-04-15T20:40:27.056Z,57.04
2023-04-15T20:42:53.395Z,57.07
2023-04-15T20:45:19.676Z,56.20
2023-04-15T20:47:46.008Z,55.66
2023-04-15T20:50:12.363Z,55.56
2023-04-15T20:52:38.938Z,55.46
2023-04-15T20:55:06.913Z,54.95
2023-04-15T20:57:33.188Z,54.90
2023-04-15T20:59:59.495Z,54.70
2023-04-15T21:02:25.992Z,56.24
2023-04-15T21:04:52.395Z,57.21
2023-04-15T21:07:18.658Z,57.68
2023-04-15T21:09:44.996Z,57.59
2023-04-15T21:12:11.304Z,56.65
2023-04-15T21:14:37.683Z,57.57
2023-04-15T21:17:09.162Z,58.57
2023-04-15T21:19:36.743Z,57.28
2023-04-15T21:22:03.048Z,56.78
2023-04-15T21:24:29.408Z,56.89
2023-04-15T21:26:57.170Z,56.46
2023-04-15T21:29:23.632Z,55.10
2023-04-15T21:31:50.047Z,55.16
2023-04-15T21:34:16.408Z,55.07
2023-04-15T21:36:42.801Z,55.33
2023-04-15T21:39:09.097Z,55.37
2023-04-15T21:41:36.720Z,55.29
2023-04-15T21:44:03.218Z,55.31
2023-04-15T21:46:32.743Z,55.53
2023-04-15T21:48:59.770Z,55.30
2023-04-15T21:51:26.585Z,54.50
2023-04-15T21:53:52.865Z,54.24
2023-04-15T21:56:21.453Z,54.13
2023-04-15T21:58:47.760Z,54.18
2023-04-15T22:01:14.226Z,53.82
2023-04-15T22:03:40.891Z,53.41
2023-04-15T22:06:07.368Z,53.64
2023-04-15T22:08:44.637Z,53.19
2023-04-15T22:11:22.867Z,53.77
2023-04-15T22:13:49.164Z,55.38
2023-04-15T22:16:15.549Z,57.01
2023-04-15T22:18:41.858Z,56.96
2023-04-15T22:21:08.439Z,56.15
2023-04-15T22:23:34.751Z,55.81
2023-04-15T22:26:01.234Z,55.67
2023-04-15T22:28:27.511Z,55.06
2023-04-15T22:30:54.538Z,54.07
2023-04-15T22:33:20.960Z,55.39
2023-04-15T22:35:47.268Z,55.11
2023-04-15T22:38:13.565Z,55.28
2023-04-15T22:40:39.862Z,55.42
2023-04-15T22:43:06.183Z,54.97
2023-04-15T22:45:32.478Z,54.65
2023-04-15T22:47:58.813Z,54.30
2023-04-15T22:50:25.142Z,54.43
2023-04-15T22:52:51.564Z,54.71
2023-04-15T22:55:18.053Z,54.31
2023-04-15T22:57:44.426Z,53.98
2023-04-15T23:00:11.062Z,54.00
2023-04-15T23:02:37.560Z,54.53
2023-04-15T23:05:12.442Z,54.33
2023-04-15T23:07:39.750Z,53.85
2023-04-15T23:10:06.878Z,54.11
2023-04-15T23:12:33.157Z,54.58
2023-04-15T23:14:59.428Z,54.26
2023-04-15T23:17:26.616Z,54.33
2023-04-15T23:19:53.062Z,53.65
2023-04-15T23:22:19.360Z,53.81
2023-04-15T23:24:46.030Z,53.75
2023-04-15T23:27:12.300Z,53.63
2023-04-15T23:29:38.852Z,53.50
2023-04-15T23:32:05.314Z,52.89
2023-04-15T23:34:31.689Z,52.34
2023-04-15T23:36:57.999Z,52.26
2023-04-15T23:39:24.339Z,51.96
2023-04-15T23:41:50.639Z,52.74
2023-04-15T23:44:16.922Z,52.19
2023-04-15T23:46:43.247Z,52.77
2023-04-15T23:49:09.789Z,52.40
2023-04-15T23:51:36.288Z,52.66
2023-04-15T23:54:02.559Z,53.01
2023-04-15T23:56:28.861Z,52.60
2023-04-15T23:58:55.324Z,52.46
